オークランド の空港の天気 - METARとTAF

オークランド国際空港 ( NZAA / AKL ) - ニュージーランド オークランド|オークランド
飛行場実況気象(Metar)
観測時間09/21 10:00 NZST (09/20 22:00 UTC)
風向・風速西南西 2m/s
視程10km以上
天気現象
なし
気温15℃
湿度82%
気圧1008hPa
METARNZAA 202200Z AUTO 24004KT 200V280 9999 NCD 15/12 Q1008 TEMPO 7000 SHRA BKN008
過去の天気等 Google飛行場航空写真 Wunderground天気予報

過去48時間のMETAR

飛行場予報(TAF)
発表時間: 9/21 05:03 NZST (9/20 17:03 UTC)
予報対象時間: 21日6時 NZST ~ 22日6時 NZST
風向・風速南西 5m/s
視程10km以上
全天の4割程度の雲 雲底高度 460m
21日9時 NZST から
風向・風速西 5m/s
視程10km以上
天気現象弱いしゅう雨
全天の4割程度の雲 雲底高度 760m
全天の8割程度の雲 雲底高度 1220m
21日18時 NZST ~ 21日20時 NZST に徐々に
風向・風速南東 3m/s
TAF NZAA 201703Z 2018/2118 22010KT 9999 SCT015
FM202100 28010KT 9999 -SHRA SCT025 BKN040
BECMG 2106/2108 14005KT